Time;durP1;ratioP1;P1;durP2;ratioP2;P2;SDS_P1;SDS_P2;PMS_P1;PMS_P2;Temp;Humidity;BMP_temperature;BMP_pressure;BME280_temperature;BME280_humidity;BME280_pressure;Samples;Min_cycle;Max_cycle;Signal;HPM_P1;HPM_P2
2021/10/11 00:02:26;;;;;;;9.93;7.32;;;;;;;30.23;75.51;100526.34;5061588;28;69059;-39
2021/10/11 00:04:58;;;;;;;17.23;8.18;;;;;;;30.16;75.81;100539.06;5055570;28;66280;-39
2021/10/11 00:07:29;;;;;;;13.98;6.97;;;;;;;30.15;75.73;100542.81;5061137;28;69423;-39
2021/10/11 00:10:00;;;;;;;7.82;6.13;;;;;;;30.15;75.92;100536.59;5057623;27;66097;-42
2021/10/11 00:12:31;;;;;;;8.48;5.72;;;;;;;30.08;76.66;100554.75;5059267;28;69489;-39
2021/10/11 00:15:03;;;;;;;21.63;6.43;;;;;;;30.02;76.65;100553.78;5057978;28;66361;-40
2021/10/11 00:17:34;;;;;;;20.88;6.30;;;;;;;29.93;76.76;100555.09;5059520;28;70035;-39
2021/10/11 00:20:11;;;;;;;12.07;5.75;;;;;;;29.94;76.83;100551.34;5055882;28;66404;-39
2021/10/11 00:22:50;;;;;;;14.20;5.45;;;;;;;29.84;77.33;100554.56;5057416;28;69741;-39
2021/10/11 00:25:40;;;;;;;7.53;5.10;;;;;;;29.81;77.43;100550.41;5065904;28;65098;-39
2021/10/11 00:28:25;;;;;;;11.70;5.95;;;;;;;29.84;77.67;100552.69;5059714;28;69383;-39
2021/10/11 00:31:16;;;;;;;10.18;6.15;;;;;;;29.49;77.62;100500.94;5044137;28;65154;-38
2021/10/11 00:34:22;;;;;;;9.32;5.65;;;;;;;29.90;77.27;100550.16;5036187;28;69150;-39
2021/10/11 00:37:09;;;;;;;9.77;5.70;;;;;;;29.67;77.14;100519.16;5054110;28;65867;-38
2021/10/11 00:39:59;;;;;;;10.48;4.90;;;;;;;29.89;77.18;100553.88;5089336;27;70439;-39
2021/10/11 00:42:54;;;;;;;8.10;6.38;;;;;;;29.92;76.80;100556.13;5041969;28;65061;-38
2021/10/11 00:45:45;;;;;;;11.43;6.13;;;;;;;29.89;76.34;100559.28;5057919;27;69450;-38
2021/10/11 00:48:32;;;;;;;11.07;6.05;;;;;;;29.93;76.50;100561.34;5056869;28;66644;-39
2021/10/11 00:51:41;;;;;;;11.57;5.50;;;;;;;30.04;76.39;100554.38;5056278;27;70384;-38
2021/10/11 00:54:37;;;;;;;8.13;5.80;;;;;;;30.10;76.01;100561.59;5059744;28;65577;-38
2021/10/11 00:57:35;;;;;;;10.38;5.32;;;;;;;30.01;76.04;100541.31;5055829;28;70689;-37
2021/10/11 01:01:18;;;;;;;15.18;5.90;;;;;;;30.07;76.47;100567.47;5030979;27;66589;-38
2021/10/11 01:04:07;;;;;;;9.07;6.07;;;;;;;30.20;76.16;100561.06;5058125;28;69249;-38
2021/10/11 01:07:20;;;;;;;5.90;5.35;;;;;;;30.20;75.91;100566.47;5057418;28;65466;-38
2021/10/11 01:10:12;;;;;;;6.57;5.75;;;;;;;30.33;76.05;100565.56;5050885;28;70164;-38
2021/10/11 01:12:58;;;;;;;6.30;5.50;;;;;;;30.38;75.40;100571.13;5055707;28;65978;-37
2021/10/11 01:16:06;;;;;;;8.10;6.07;;;;;;;30.42;75.34;100578.59;5080247;27;43770;-37
2021/10/11 01:19:00;;;;;;;7.55;6.30;;;;;;;30.42;75.42;100573.19;5079971;27;69642;-37
2021/10/11 01:21:51;;;;;;;5.50;4.95;;;;;;;30.45;75.43;100574.59;5072862;27;66542;-37
2021/10/11 01:24:57;;;;;;;6.55;5.38;;;;;;;30.36;75.39;100570.53;5068694;27;70101;-37
2021/10/11 01:28:39;;;;;;;7.30;6.22;;;;;;;30.43;75.98;100576.72;5076356;27;66551;-37
2021/10/11 01:31:37;;;;;;;7.32;5.95;;;;;;;30.50;75.65;100588.28;5104118;27;69598;-37
2021/10/11 01:34:51;;;;;;;12.13;6.60;;;;;;;30.49;75.72;100586.63;5077859;27;65312;-37
2021/10/11 01:38:14;;;;;;;9.80;6.97;;;;;;;30.36;75.94;100575.94;5075445;27;69083;-37
2021/10/11 01:41:22;;;;;;;11.57;6.35;;;;;;;30.53;75.83;100595.94;5080903;27;66114;-37
2021/10/11 01:44:14;;;;;;;8.38;6.78;;;;;;;30.55;75.54;100593.84;5067876;27;70275;-36
2021/10/11 01:47:41;;;;;;;7.60;6.20;;;;;;;30.44;75.53;100600.00;5078047;27;65354;-37
2021/10/11 01:51:19;;;;;;;12.68;6.93;;;;;;;30.55;75.62;100601.97;5077602;27;69887;-36
2021/10/11 01:54:32;;;;;;;8.88;6.68;;;;;;;30.62;75.30;100604.59;5079478;27;65781;-37
2021/10/11 01:57:30;;;;;;;11.00;6.65;;;;;;;30.61;76.50;100617.31;5079427;27;70257;-36
2021/10/11 02:00:33;;;;;;;10.20;7.40;;;;;;;30.62;76.17;100608.16;5084733;27;65605;-37
2021/10/11 02:03:33;;;;;;;10.70;6.90;;;;;;;30.27;76.59;100557.28;5074947;27;70001;-36
2021/10/11 02:06:16;;;;;;;14.02;7.30;;;;;;;30.55;76.34;100601.97;5078334;27;66793;-36
2021/10/11 02:09:10;;;;;;;7.57;6.50;;;;;;;30.53;76.59;100595.94;5080017;27;70540;-36
2021/10/11 02:12:36;;;;;;;11.45;6.50;;;;;;;30.45;76.33;100586.25;5077959;27;66499;-39
2021/10/11 02:15:35;;;;;;;11.20;6.28;;;;;;;30.50;76.30;100599.09;5078584;27;70841;-36
2021/10/11 02:18:30;;;;;;;13.25;7.47;;;;;;;30.53;76.55;100608.66;5061737;27;65489;-36
2021/10/11 02:21:36;;;;;;;11.60;6.55;;;;;;;30.41;76.74;100590.44;5085876;27;69280;-39
2021/10/11 02:24:32;;;;;;;8.90;6.53;;;;;;;30.43;76.77;100598.34;5080766;27;66152;-37
2021/10/11 02:27:06;;;;;;;10.05;5.90;;;;;;;30.39;76.81;100586.31;5060271;27;70504;-37
2021/10/11 02:29:56;;;;;;;11.30;6.30;;;;;;;30.37;77.08;100594.66;5060823;28;67014;-39
2021/10/11 02:33:27;;;;;;;11.57;6.50;;;;;;;30.27;76.82;100600.56;5060174;28;71373;-39
2021/10/11 02:36:21;;;;;;;8.88;6.03;;;;;;;30.38;77.02;100607.13;5058674;28;65486;-39
2021/10/11 02:39:30;;;;;;;9.90;5.53;;;;;;;30.05;76.80;100559.56;5056152;28;69944;-40
2021/10/11 02:42:32;;;;;;;8.02;5.88;;;;;;;30.42;77.67;100592.13;5067221;28;67000;-40
2021/10/11 02:45:31;;;;;;;7.65;6.40;;;;;;;30.44;77.03;100594.59;5065018;28;69461;-39
2021/10/11 02:48:18;;;;;;;9.20;6.30;;;;;;;30.26;77.30;100571.88;5067496;28;65888;-40
2021/10/11 02:51:08;;;;;;;14.80;7.13;;;;;;;30.48;76.97;100591.22;5045532;28;69828;-38
2021/10/11 02:54:11;;;;;;;11.45;6.90;;;;;;;30.51;76.22;100587.25;5067527;27;65471;-38
2021/10/11 02:56:51;;;;;;;13.68;6.28;;;;;;;30.55;77.16;100574.91;5049810;28;70167;-38
2021/10/11 02:59:43;;;;;;;8.90;6.25;;;;;;;30.56;76.70;100565.72;5065579;27;65548;-38
2021/10/11 03:02:28;;;;;;;15.93;6.30;;;;;;;30.60;76.57;100558.81;5076045;27;70593;-38
2021/10/11 03:05:29;;;;;;;;;;;;;;;30.41;77.71;100551.75;5068533;28;66984;-37
2021/10/11 03:08:32;;;;;;;13.57;6.20;;;;;;;30.36;76.56;100506.41;5053691;28;70012;-37
2021/10/11 03:11:25;;;;;;;10.10;5.78;;;;;;;30.67;76.99;100551.44;5065171;28;65967;-38
2021/10/11 03:14:20;;;;;;;8.20;5.43;;;;;;;30.68;76.85;100584.75;4975373;28;70132;-39
2021/10/11 03:17:03;;;;;;;12.70;5.80;;;;;;;30.70;76.83;100578.06;4970801;28;66200;-41
2021/10/11 03:19:48;;;;;;;5.38;4.88;;;;;;;30.78;75.95;100584.22;4987719;28;69538;-38
2021/10/11 03:22:42;;;;;;;;;;;;;;;30.54;76.01;100594.09;4975261;28;66674;-37
2021/10/11 03:25:41;;;;;;;6.40;4.10;;;;;;;30.63;75.14;100606.25;4962395;28;69666;-38
2021/10/11 03:28:39;;;;;;;;;;;;;;;30.44;76.32;100622.47;4955367;28;67139;-41
2021/10/11 03:31:45;;;;;;;5.85;3.75;;;;;;;30.65;75.81;100602.28;4982804;28;70214;-38
2021/10/11 03:34:45;;;;;;;6.25;3.60;;;;;;;30.68;75.59;100612.66;4976742;28;65333;-38
2021/10/11 03:37:27;;;;;;;4.15;3.42;;;;;;;30.65;75.63;100606.88;4955172;28;69347;-38
2021/10/11 03:40:10;;;;;;;5.70;3.17;;;;;;;30.65;75.22;100607.69;4958689;28;64441;-39
2021/10/11 03:43:15;;;;;;;3.55;2.97;;;;;;;30.66;75.26;100603.94;4948747;28;69620;-37
2021/10/11 03:46:00;;;;;;;6.03;2.50;;;;;;;30.64;73.43;100594.38;4969961;28;66902;-38
2021/10/11 03:49:02;;;;;;;5.38;2.25;;;;;;;30.56;72.49;100587.38;4954402;28;69281;-37
2021/10/11 03:51:37;;;;;;;7.30;5.38;;;;;;;30.48;71.80;100574.16;4971829;28;66321;-40
2021/10/11 03:54:15;;;;;;;7.57;6.97;;;;;;;30.48;70.72;100585.81;4951471;28;70167;-38
2021/10/11 03:56:53;;;;;;;6.55;3.63;;;;;;;30.40;70.04;100574.47;4967679;28;66054;-39
2021/10/11 03:59:27;;;;;;;5.68;3.47;;;;;;;30.39;70.58;100560.06;5051738;28;69489;-39
2021/10/11 04:02:07;;;;;;;3.00;2.22;;;;;;;30.33;68.81;100560.16;5062292;28;65472;-39
2021/10/11 04:04:39;;;;;;;8.20;2.42;;;;;;;30.31;70.92;100552.25;5045553;28;70214;-39
2021/10/11 04:07:14;;;;;;;2.78;2.25;;;;;;;30.35;70.16;100539.13;5064647;28;66589;-40
2021/10/11 04:09:48;;;;;;;2.45;2.17;;;;;;;30.38;71.02;100527.84;5059374;27;70467;-38
2021/10/11 04:12:32;;;;;;;2.75;1.85;;;;;;;30.38;69.87;100519.72;5035382;28;66325;-40
2021/10/11 04:15:08;;;;;;;8.05;2.10;;;;;;;30.37;69.06;100526.16;5023777;28;69899;-39
2021/10/11 04:17:41;;;;;;;2.58;1.95;;;;;;;30.39;69.89;100511.34;5033717;28;66615;-38
2021/10/11 04:20:23;;;;;;;4.15;1.90;;;;;;;30.42;68.43;100515.50;5069861;28;69523;-37
2021/10/11 04:22:57;;;;;;;6.38;1.60;;;;;;;30.39;69.18;100533.00;5056891;28;66092;-38
2021/10/11 04:25:28;;;;;;;3.00;1.83;;;;;;;30.41;69.59;100527.38;5064000;28;70764;-37
2021/10/11 04:28:04;;;;;;;2.45;1.80;;;;;;;30.41;68.74;100530.09;5063567;28;66278;-42
2021/10/11 04:30:37;;;;;;;4.97;1.40;;;;;;;30.37;68.98;100528.88;5046944;28;69927;-37
2021/10/11 04:33:14;;;;;;;2.10;1.35;;;;;;;30.40;68.70;100528.44;5061569;28;66417;-36
2021/10/11 04:35:46;;;;;;;3.67;1.40;;;;;;;30.37;69.08;100507.22;5045965;28;69992;-37
2021/10/11 04:38:19;;;;;;;1.83;1.30;;;;;;;30.35;68.51;100514.75;5046141;28;66467;-38
2021/10/11 04:40:51;;;;;;;2.20;1.63;;;;;;;30.37;69.12;100518.06;5053037;28;69468;-37
2021/10/11 04:43:25;;;;;;;3.08;1.67;;;;;;;30.35;68.93;100501.22;5057027;28;65906;-38
2021/10/11 04:45:56;;;;;;;1.80;1.53;;;;;;;30.35;68.72;100506.66;5046560;28;69796;-38
2021/10/11 04:48:27;;;;;;;3.38;2.45;;;;;;;30.38;68.71;100492.66;5060125;28;66225;-37
2021/10/11 04:50:58;;;;;;;4.13;3.60;;;;;;;30.32;68.37;100488.97;5041288;28;71149;-38
2021/10/11 04:53:31;;;;;;;3.17;2.17;;;;;;;30.36;68.64;100483.94;5066551;28;65647;-38
2021/10/11 04:56:02;;;;;;;4.45;1.58;;;;;;;30.42;68.81;100483.03;5066900;28;69482;-37
2021/10/11 04:58:33;;;;;;;2.28;1.65;;;;;;;30.40;69.12;100468.91;5062288;27;66482;-38
2021/10/11 05:01:05;;;;;;;3.63;1.50;;;;;;;30.42;68.62;100461.38;5061635;28;69283;-38
2021/10/11 05:03:40;;;;;;;2.00;1.70;;;;;;;30.45;69.10;100471.75;5060679;28;66461;-37
2021/10/11 05:06:13;;;;;;;1.63;1.52;;;;;;;30.47;68.95;100469.63;5058780;27;69621;-37
2021/10/11 05:08:44;;;;;;;2.80;1.90;;;;;;;30.46;69.02;100468.00;5067461;28;66376;-37
2021/10/11 05:11:19;;;;;;;3.17;1.60;;;;;;;30.48;68.81;100457.78;5061181;28;69746;-37
2021/10/11 05:13:55;;;;;;;2.33;2.13;;;;;;;30.50;69.31;100458.34;5046615;28;66305;-38
2021/10/11 05:16:27;;;;;;;3.22;2.47;;;;;;;30.48;69.31;100445.06;5061454;28;70267;-39
2021/10/11 05:19:00;;;;;;;3.05;1.90;;;;;;;30.53;69.09;100452.47;5064546;27;65914;-38
2021/10/11 05:21:34;;;;;;;2.33;1.70;;;;;;;30.51;69.35;100435.66;5049904;28;69180;-37
2021/10/11 05:24:06;;;;;;;2.33;2.07;;;;;;;30.55;68.89;100436.84;5063074;27;66082;-38
2021/10/11 05:26:40;;;;;;;3.47;2.40;;;;;;;30.54;69.29;100427.09;5023192;28;70097;-39
2021/10/11 05:29:12;;;;;;;1.98;1.67;;;;;;;30.56;68.96;100421.44;5064185;28;66244;-38
2021/10/11 05:31:47;;;;;;;6.70;1.50;;;;;;;30.57;69.43;100406.84;5049570;28;69546;-37
2021/10/11 05:34:19;;;;;;;1.65;1.27;;;;;;;30.60;70.07;100401.81;5061791;28;66310;-37
2021/10/11 05:36:59;;;;;;;5.93;1.35;;;;;;;30.65;70.16;100393.00;5061646;28;70152;-38
2021/10/11 05:39:33;;;;;;;2.65;1.50;;;;;;;30.63;70.30;100382.38;5061381;28;65653;-38
2021/10/11 05:42:06;;;;;;;1.67;1.58;;;;;;;30.67;70.31;100378.19;5065500;28;69721;-38
2021/10/11 05:44:38;;;;;;;3.55;1.75;;;;;;;30.68;70.44;100379.00;5066784;28;66327;-38
2021/10/11 05:47:11;;;;;;;9.20;1.40;;;;;;;30.67;69.87;100361.94;5063963;27;69292;-37
2021/10/11 05:49:42;;;;;;;1.50;1.30;;;;;;;30.70;70.43;100356.06;5056834;28;66264;-42
2021/10/11 05:52:13;;;;;;;2.33;1.40;;;;;;;30.68;70.50;100341.91;5066576;28;69787;-37
2021/10/11 05:54:45;;;;;;;1.40;1.17;;;;;;;30.77;70.59;100341.59;5013296;28;66541;-37
2021/10/11 05:57:22;;;;;;;1.70;1.25;;;;;;;30.78;70.18;100335.91;5064094;28;69783;-38
2021/10/11 06:00:04;;;;;;;1.60;1.50;;;;;;;30.77;70.24;100328.03;5036788;27;66162;-37
2021/10/11 06:02:38;;;;;;;2.05;1.48;;;;;;;30.80;69.99;100328.44;5067678;28;70066;-37
2021/10/11 06:05:12;;;;;;;1.83;1.20;;;;;;;30.80;70.49;100323.00;5050626;28;65168;-41
2021/10/11 06:07:43;;;;;;;1.92;1.38;;;;;;;30.82;70.25;100310.06;5061785;28;70070;-37
2021/10/11 06:10:16;;;;;;;2.25;1.40;;;;;;;30.85;70.42;100308.78;5061147;28;66336;-38
2021/10/11 06:12:49;;;;;;;1.60;1.30;;;;;;;30.82;70.01;100288.41;5061620;28;70135;-38
2021/10/11 06:15:25;;;;;;;5.75;1.77;;;;;;;30.86;69.95;100288.75;5065367;27;64494;-38
2021/10/11 06:17:58;;;;;;;2.15;1.90;;;;;;;30.86;69.93;100288.75;5063344;28;70054;-38
2021/10/11 06:20:30;;;;;;;1.80;1.42;;;;;;;30.87;69.84;100275.00;5063788;28;65497;-38
2021/10/11 06:23:06;;;;;;;1.88;1.67;;;;;;;30.89;70.16;100278.28;5047860;28;69200;-39
2021/10/11 06:25:38;;;;;;;3.92;1.73;;;;;;;30.90;70.07;100273.72;5061134;28;65615;-38
2021/10/11 06:28:19;;;;;;;4.30;2.10;;;;;;;30.90;70.03;100268.28;5066634;28;69083;-37
2021/10/11 06:30:51;;;;;;;2.70;2.10;;;;;;;30.91;69.60;100269.94;5048778;28;66613;-38
2021/10/11 06:33:30;;;;;;;3.90;2.28;;;;;;;30.90;69.49;100257.47;5038659;28;70383;-38
2021/10/11 06:36:04;;;;;;;3.58;1.92;;;;;;;30.96;69.65;100259.22;5048244;28;66768;-38
2021/10/11 06:38:39;;;;;;;2.13;1.70;;;;;;;30.94;69.68;100258.63;5029846;28;69896;-38
2021/10/11 06:41:14;;;;;;;4.30;2.10;;;;;;;30.97;69.98;100252.72;5044511;28;65977;-37
2021/10/11 06:43:52;;;;;;;3.50;1.83;;;;;;;30.96;69.98;100251.09;5064906;28;70112;-37
2021/10/11 06:46:29;;;;;;;5.85;2.20;;;;;;;31.02;69.48;100255.56;5068601;28;66907;-37
2021/10/11 06:49:13;;;;;;;2.33;2.13;;;;;;;31.04;69.67;100258.88;5061005;28;70209;-37
2021/10/11 06:51:50;;;;;;;3.33;2.38;;;;;;;31.07;69.78;100244.03;5034514;28;66280;-37
2021/10/11 06:54:35;;;;;;;3.40;2.10;;;;;;;30.88;69.74;100206.22;5070922;28;69896;-38
2021/10/11 06:57:17;;;;;;;2.58;2.00;;;;;;;31.20;69.99;100245.66;5064664;27;65591;-37
2021/10/11 06:59:54;;;;;;;4.28;1.75;;;;;;;31.24;69.58;100242.22;5056637;28;69237;-37
2021/10/11 07:03:01;;;;;;;2.03;1.83;;;;;;;31.22;69.66;100238.09;5061627;28;66790;-36
2021/10/11 07:05:45;;;;;;;2.10;1.55;;;;;;;31.36;69.77;100255.78;5064558;28;71264;-38
2021/10/11 07:08:58;;;;;;;1.88;1.67;;;;;;;31.15;69.05;100211.97;5045529;28;67174;-38
2021/10/11 07:12:05;;;;;;;2.10;1.70;;;;;;;31.41;68.87;100253.19;5051282;28;70163;-38
2021/10/11 07:14:52;;;;;;;1.92;1.42;;;;;;;31.47;69.14;100241.38;5054291;28;66079;-37
2021/10/11 07:17:39;;;;;;;2.72;2.05;;;;;;;31.50;68.70;100246.31;5030878;28;69791;-36
2021/10/11 07:20:56;;;;;;;2.55;2.33;;;;;;;31.41;68.29;100236.94;5058782;28;67621;-39
2021/10/11 07:23:37;;;;;;;2.33;2.13;;;;;;;31.55;68.31;100243.72;5050606;28;69372;-38
2021/10/11 07:26:24;;;;;;;2.67;1.92;;;;;;;31.37;68.33;100195.09;5061552;28;66025;-38
2021/10/11 07:29:16;;;;;;;5.95;1.88;;;;;;;31.57;68.26;100222.63;5033139;28;69450;-37
2021/10/11 07:32:14;;;;;;;3.85;2.00;;;;;;;31.54;67.76;100231.25;5068154;27;66194;-38
2021/10/11 07:34:53;;;;;;;2.42;2.08;;;;;;;31.68;68.08;100230.94;5048885;28;69131;-38
2021/10/11 07:37:35;;;;;;;1.85;1.75;;;;;;;31.69;68.05;100221.75;5051137;28;66279;-38
2021/10/11 07:40:20;;;;;;;7.38;2.20;;;;;;;31.70;68.13;100229.63;5022160;28;70076;-38
2021/10/11 07:43:18;;;;;;;2.45;2.00;;;;;;;31.69;67.42;100216.34;5037242;28;66931;-39
2021/10/11 07:46:11;;;;;;;3.78;2.20;;;;;;;31.69;68.15;100227.19;5064483;27;70156;-39
2021/10/11 07:48:55;;;;;;;3.70;2.17;;;;;;;31.73;68.28;100222.91;5056479;28;65268;-39
2021/10/11 07:51:36;;;;;;;8.00;2.38;;;;;;;31.73;67.92;100221.03;5067516;28;69717;-38
2021/10/11 07:54:20;;;;;;;2.80;2.30;;;;;;;31.74;68.64;100219.97;5066971;28;65415;-38
2021/10/11 07:57:26;;;;;;;4.20;2.35;;;;;;;31.65;67.96;100218.72;5064554;27;69437;-36
2021/10/11 08:00:18;;;;;;;4.22;2.25;;;;;;;31.69;67.53;100205.50;5067410;28;66635;-38
2021/10/11 08:03:37;;;;;;;5.97;2.05;;;;;;;31.73;67.80;100201.22;5015960;28;70738;-37
2021/10/11 08:06:57;;;;;;;4.20;2.50;;;;;;;31.76;67.57;100214.28;5070282;28;66121;-37
2021/10/11 08:10:09;;;;;;;5.78;2.13;;;;;;;31.82;67.80;100200.59;5059307;28;69604;-38
2021/10/11 08:13:08;;;;;;;8.07;2.13;;;;;;;31.78;66.74;100198.59;5060034;28;66766;-38
2021/10/11 08:15:57;;;;;;;3.72;2.70;;;;;;;31.81;66.81;100211.69;5048502;28;70052;-38
2021/10/11 08:18:35;;;;;;;7.93;3.70;;;;;;;31.87;66.83;100202.56;5036457;28;66972;-38
2021/10/11 08:21:21;;;;;;;11.73;3.80;;;;;;;31.83;66.90;100218.50;5060680;28;69225;-37
2021/10/11 08:24:18;;;;;;;5.95;4.03;;;;;;;31.78;66.70;100214.88;5050632;28;65835;-38
2021/10/11 08:27:20;;;;;;;4.60;4.00;;;;;;;31.82;67.23;100221.47;5062414;28;70053;-38
2021/10/11 08:30:15;;;;;;;3.58;3.28;;;;;;;31.90;67.34;100221.09;5061230;27;66142;-38
2021/10/11 08:33:09;;;;;;;6.13;3.47;;;;;;;31.64;67.68;100178.28;5063840;28;70235;-36
2021/10/11 08:36:03;;;;;;;5.13;3.67;;;;;;;31.90;67.08;100233.81;5063440;28;66137;-37
2021/10/11 08:39:01;;;;;;;7.35;3.28;;;;;;;31.92;67.76;100232.53;5066101;27;70336;-37
2021/10/11 08:41:52;;;;;;;6.45;3.85;;;;;;;31.94;68.00;100235.00;5063878;27;65587;-36
2021/10/11 08:44:59;;;;;;;9.05;3.67;;;;;;;31.68;67.74;100184.84;5067777;28;69508;-37
2021/10/11 08:48:16;;;;;;;24.48;4.70;;;;;;;31.87;68.34;100240.53;5066992;27;66165;-37
2021/10/11 08:51:18;;;;;;;8.80;3.75;;;;;;;31.94;68.13;100252.09;5068146;28;69727;-38
2021/10/11 08:54:07;;;;;;;46.70;5.50;;;;;;;31.96;68.06;100255.41;5064506;28;65001;-36
2021/10/11 08:57:01;;;;;;;9.20;3.63;;;;;;;31.89;67.62;100254.69;5060432;28;70301;-38
2021/10/11 09:00:05;;;;;;;9.85;4.10;;;;;;;31.80;68.35;100264.28;5068108;28;65392;-37
2021/10/11 09:03:01;;;;;;;9.65;3.80;;;;;;;31.53;68.30;100245.03;5066906;28;69282;-38
2021/10/11 09:05:58;;;;;;;7.28;4.57;;;;;;;31.64;69.28;100256.91;5068255;28;65532;-38
2021/10/11 09:08:42;;;;;;;6.28;4.32;;;;;;;31.64;69.94;100263.13;5049968;28;69128;-38
2021/10/11 09:11:32;;;;;;;6.75;4.13;;;;;;;31.58;69.79;100264.09;5071052;28;67197;-38
2021/10/11 09:14:22;;;;;;;4.72;3.90;;;;;;;31.33;69.58;100212.88;5064245;28;69981;-38
2021/10/11 09:17:20;;;;;;;8.00;3.92;;;;;;;31.53;69.74;100250.44;5067324;28;65669;-37
2021/10/11 09:20:07;;;;;;;4.40;3.88;;;;;;;31.51;69.72;100248.00;5065392;28;70164;-38
2021/10/11 09:22:44;;;;;;;8.65;4.22;;;;;;;31.51;70.10;100257.97;5062185;28;66713;-37
2021/10/11 09:25:21;;;;;;;5.00;4.30;;;;;;;31.47;70.26;100260.34;5066013;28;69272;-37
2021/10/11 09:27:55;;;;;;;9.90;5.22;;;;;;;31.51;70.34;100269.69;5024410;28;67584;-40
2021/10/11 09:30:31;;;;;;;7.72;5.55;;;;;;;31.51;72.01;100264.25;5052142;28;70286;-37
2021/10/11 09:33:10;;;;;;;12.90;5.68;;;;;;;31.53;72.43;100270.22;5048762;28;66501;-36
2021/10/11 09:35:46;;;;;;;9.02;4.80;;;;;;;31.37;72.32;100262.84;5062229;28;69550;-37
2021/10/11 09:38:31;;;;;;;5.38;4.70;;;;;;;31.52;72.07;100281.34;5069858;28;66274;-37
2021/10/11 09:41:08;;;;;;;18.27;4.38;;;;;;;31.54;71.71;100290.88;5070970;28;70443;-36
2021/10/11 09:43:40;;;;;;;7.18;4.57;;;;;;;31.53;72.75;100289.22;5068242;28;65110;-35
2021/10/11 09:46:14;;;;;;;4.60;4.05;;;;;;;31.55;72.34;100306.06;5072348;28;70980;-36
2021/10/11 09:48:55;;;;;;;7.40;4.68;;;;;;;31.55;72.27;100307.97;5068845;28;65756;-35
2021/10/11 09:51:31;;;;;;;7.20;4.05;;;;;;;31.54;72.66;100323.41;5064824;28;69823;-36
2021/10/11 09:54:05;;;;;;;5.15;4.20;;;;;;;31.54;72.12;100318.00;5053148;28;66138;-36
2021/10/11 09:56:39;;;;;;;12.93;4.70;;;;;;;31.55;71.92;100327.75;5064690;28;70104;-36
2021/10/11 09:59:16;;;;;;;7.85;3.92;;;;;;;31.35;72.13;100292.06;5067459;28;65326;-35
2021/10/11 10:01:49;;;;;;;12.73;4.65;;;;;;;31.56;71.82;100309.59;5066062;28;70075;-36
2021/10/11 10:04:31;;;;;;;7.47;4.07;;;;;;;31.31;73.16;100280.03;5051549;28;64813;-42
2021/10/11 10:07:06;;;;;;;14.70;4.97;;;;;;;31.55;73.28;100324.22;5067299;28;69801;-41
2021/10/11 10:09:46;;;;;;;18.25;4.72;;;;;;;31.55;72.90;100319.63;5071601;28;66184;-41
2021/10/11 10:12:18;;;;;;;9.80;5.40;;;;;;;31.55;73.26;100316.91;5063809;28;70357;-41
2021/10/11 10:14:59;;;;;;;9.32;4.65;;;;;;;31.28;73.49;100275.91;5061972;28;65980;-41
2021/10/11 10:17:35;;;;;;;21.42;4.80;;;;;;;31.31;73.35;100280.03;5066897;28;70152;-41
2021/10/11 10:20:11;;;;;;;13.45;4.70;;;;;;;31.60;73.08;100327.88;5068842;28;66551;-42
2021/10/11 10:22:45;;;;;;;9.32;4.85;;;;;;;31.60;72.90;100322.44;5072984;27;70508;-41
2021/10/11 10:25:16;;;;;;;11.45;5.22;;;;;;;31.59;72.97;100318.09;5074460;28;66672;-42
2021/10/11 10:27:50;;;;;;;;;;;;;;;31.35;73.63;100319.16;5065556;28;70156;-42
2021/10/11 10:30:26;;;;;;;8.02;4.93;;;;;;;31.29;73.49;100283.00;5071652;28;66089;-42
2021/10/11 10:33:14;;;;;;;9.70;5.07;;;;;;;31.57;73.12;100333.78;5066632;28;69900;-41
2021/10/11 10:35:47;;;;;;;9.52;5.22;;;;;;;31.59;73.45;100331.66;5065797;27;66127;-43
2021/10/11 10:38:21;;;;;;;5.95;5.22;;;;;;;31.31;73.22;100290.88;5071789;28;70095;-42
2021/10/11 10:40:53;;;;;;;13.70;5.35;;;;;;;31.57;73.27;100339.19;5051964;28;66329;-41
2021/10/11 10:43:24;;;;;;;13.07;6.13;;;;;;;31.64;73.33;100351.78;5056971;28;69392;-41
2021/10/11 10:45:55;;;;;;;15.45;5.68;;;;;;;31.65;72.91;100351.56;5068264;27;66003;-41
2021/10/11 10:48:28;;;;;;;7.95;5.50;;;;;;;31.74;72.74;100355.56;5079115;27;70401;-41
2021/10/11 10:51:02;;;;;;;10.80;6.10;;;;;;;31.76;72.67;100353.44;5067848;28;65731;-41
2021/10/11 10:53:34;;;;;;;7.43;5.80;;;;;;;31.78;72.57;100355.88;5047382;28;69718;-40
2021/10/11 10:56:12;;;;;;;13.35;6.88;;;;;;;31.78;72.44;100350.47;5069070;27;65815;-43
2021/10/11 10:58:43;;;;;;;18.10;6.78;;;;;;;31.81;72.14;100349.97;5071070;28;70437;-43
2021/10/11 11:01:14;;;;;;;10.68;6.05;;;;;;;31.84;72.30;100349.50;5067590;27;65555;-43
2021/10/11 11:03:46;;;;;;;9.75;6.40;;;;;;;31.79;71.90;100346.72;5062206;28;70320;-42
2021/10/11 11:06:30;;;;;;;8.45;6.00;;;;;;;31.57;71.44;100303.94;5068585;28;65598;-43
2021/10/11 11:09:05;;;;;;;12.38;7.22;;;;;;;31.84;71.87;100344.06;5065795;27;68925;-43
2021/10/11 11:11:49;;;;;;;10.65;7.07;;;;;;;31.76;71.93;100345.31;5060616;28;66415;-43
2021/10/11 11:14:20;;;;;;;12.27;7.35;;;;;;;31.84;71.79;100354.94;5066729;28;70112;-41
2021/10/11 11:16:52;;;;;;;10.45;7.43;;;;;;;31.88;71.96;100372.38;5066695;28;65696;-41
2021/10/11 11:19:38;;;;;;;11.65;7.97;;;;;;;31.88;71.87;100383.25;5063229;28;69603;-41
2021/10/11 11:22:18;;;;;;;9.68;8.02;;;;;;;31.90;71.94;100413.66;5062825;28;66432;-41
2021/10/11 11:24:51;;;;;;;8.55;7.57;;;;;;;31.92;72.25;100465.81;5062015;28;69846;-41
2021/10/11 11:27:30;;;;;;;8.25;7.47;;;;;;;31.89;71.95;100463.53;5069173;28;65591;-42
2021/10/11 11:30:13;;;;;;;8.75;6.85;;;;;;;31.59;71.65;100428.41;5064575;28;69593;-42
2021/10/11 11:32:54;;;;;;;8.20;7.40;;;;;;;31.81;71.78;100472.84;5062327;28;65712;-42
2021/10/11 11:35:42;;;;;;;10.23;7.15;;;;;;;31.88;71.93;100502.59;5061663;28;69220;-43
2021/10/11 11:38:25;;;;;;;7.10;6.38;;;;;;;31.38;71.67;100410.88;5065507;28;66783;-43
2021/10/11 11:41:01;;;;;;;9.32;6.20;;;;;;;31.80;71.63;100473.09;5066743;28;69474;-43
2021/10/11 11:43:39;;;;;;;11.43;6.70;;;;;;;31.87;71.49;100500.09;5059747;28;65742;-43
2021/10/11 11:46:14;;;;;;;7.22;6.00;;;;;;;31.82;71.63;100477.22;5067418;28;68554;-43
2021/10/11 11:48:48;;;;;;;6.15;5.55;;;;;;;31.81;71.66;100491.84;5071817;28;66099;-43
2021/10/11 11:51:25;;;;;;;9.00;5.72;;;;;;;31.81;71.32;100485.59;5047966;28;70126;-43
2021/10/11 11:53:57;;;;;;;6.35;5.70;;;;;;;31.79;72.02;100466.84;5067485;28;66015;-43
2021/10/11 11:56:34;;;;;;;6.10;5.53;;;;;;;31.78;71.63;100464.38;5060163;27;68887;-43
2021/10/11 11:59:16;;;;;;;5.78;5.25;;;;;;;31.65;71.95;100464.59;5034892;28;65523;-43
2021/10/11 12:01:50;;;;;;;12.68;5.22;;;;;;;31.69;72.00;100492.91;5054157;28;69551;-43
2021/10/11 12:04:26;;;;;;;16.48;4.72;;;;;;;31.73;71.82;100515.78;5047168;28;66873;-42
2021/10/11 12:07:05;;;;;;;10.73;4.72;;;;;;;31.70;71.88;100514.34;5066384;28;71583;-43
2021/10/11 12:09:49;;;;;;;23.42;5.70;;;;;;;31.73;72.05;100523.91;5065229;28;67325;-43
2021/10/11 12:12:35;;;;;;;10.93;4.95;;;;;;;31.70;71.81;100544.19;5048881;28;70192;-43
2021/10/11 12:15:22;;;;;;;14.52;4.38;;;;;;;31.66;71.72;100534.88;5067777;28;66493;-43
2021/10/11 12:18:12;;;;;;;10.50;3.55;;;;;;;31.38;71.36;100481.31;5068442;28;70259;-43
2021/10/11 12:20:56;;;;;;;4.72;3.60;;;;;;;31.60;72.03;100509.53;5062773;28;65160;-43
2021/10/11 12:24:00;;;;;;;6.90;3.40;;;;;;;30.99;71.26;100436.69;5056259;28;70345;-43
2021/10/11 12:26:57;;;;;;;8.40;3.85;;;;;;;31.48;71.22;100524.97;5060934;27;65505;-43
2021/10/11 12:29:35;;;;;;;12.77;3.88;;;;;;;31.44;71.71;100534.59;5055497;28;70294;-41
2021/10/11 12:32:11;;;;;;;5.45;4.28;;;;;;;31.39;71.34;100548.84;5056194;28;66125;-40
2021/10/11 12:34:47;;;;;;;6.65;3.65;;;;;;;31.36;71.75;100564.75;5048881;28;70188;-41
2021/10/11 12:37:23;;;;;;;7.10;3.60;;;;;;;31.30;71.77;100571.06;5059688;28;66586;-41
2021/10/11 12:40:10;;;;;;;4.95;4.45;;;;;;;31.14;71.45;100562.50;5065088;28;69622;-41
2021/10/11 12:43:00;;;;;;;6.97;4.18;;;;;;;31.06;71.57;100565.53;5060675;28;66287;-41
2021/10/11 12:45:48;;;;;;;5.45;3.67;;;;;;;31.02;72.01;100569.78;5086052;27;69424;-41
2021/10/11 12:48:24;;;;;;;4.63;4.22;;;;;;;30.93;72.22;100565.75;5055262;28;65746;-43